sensor_id;sensor_type;location;lat;lon;timestamp;P1;durP1;ratioP1;P2;durP2;ratioP2
76550;SDS011;65393;53.160;18.170;2023-02-11T00:00:33;35.20;;;12.10;;
76550;SDS011;65393;53.160;18.170;2023-02-11T00:03:21;37.20;;;15.20;;
76550;SDS011;65393;53.160;18.170;2023-02-11T00:06:00;30.90;;;11.40;;
76550;SDS011;65393;53.160;18.170;2023-02-11T00:08:30;31.90;;;11.90;;
76550;SDS011;65393;53.160;18.170;2023-02-11T00:10:57;33.10;;;13.30;;
76550;SDS011;65393;53.160;18.170;2023-02-11T00:13:24;38.90;;;14.50;;
76550;SDS011;65393;53.160;18.170;2023-02-11T00:15:51;37.30;;;13.90;;
76550;SDS011;65393;53.160;18.170;2023-02-11T00:18:19;30.70;;;13.00;;
76550;SDS011;65393;53.160;18.170;2023-02-11T00:20:46;35.70;;;13.20;;
76550;SDS011;65393;53.160;18.170;2023-02-11T00:23:13;34.40;;;12.60;;
76550;SDS011;65393;53.160;18.170;2023-02-11T00:25:41;33.10;;;12.00;;
76550;SDS011;65393;53.160;18.170;2023-02-11T00:28:10;34.90;;;13.30;;
76550;SDS011;65393;53.160;18.170;2023-02-11T00:30:40;31.20;;;13.30;;
76550;SDS011;65393;53.160;18.170;2023-02-11T00:33:07;34.40;;;13.40;;
76550;SDS011;65393;53.160;18.170;2023-02-11T00:35:36;33.40;;;12.80;;
76550;SDS011;65393;53.160;18.170;2023-02-11T00:38:03;34.80;;;14.10;;
76550;SDS011;65393;53.160;18.170;2023-02-11T00:40:31;26.80;;;9.80;;
76550;SDS011;65393;53.160;18.170;2023-02-11T00:42:57;35.40;;;12.60;;
76550;SDS011;65393;53.160;18.170;2023-02-11T00:45:24;35.30;;;13.80;;
76550;SDS011;65393;53.160;18.170;2023-02-11T00:47:51;31.30;;;11.20;;
76550;SDS011;65393;53.160;18.170;2023-02-11T00:50:18;35.20;;;13.30;;
76550;SDS011;65393;53.160;18.170;2023-02-11T00:52:44;28.70;;;10.70;;
76550;SDS011;65393;53.160;18.170;2023-02-11T00:55:11;37.20;;;12.60;;
76550;SDS011;65393;53.160;18.170;2023-02-11T00:57:38;33.00;;;11.80;;
76550;SDS011;65393;53.160;18.170;2023-02-11T01:00:05;25.60;;;9.90;;
76550;SDS011;65393;53.160;18.170;2023-02-11T01:02:33;30.40;;;12.10;;
76550;SDS011;65393;53.160;18.170;2023-02-11T01:05:00;27.90;;;10.90;;
76550;SDS011;65393;53.160;18.170;2023-02-11T01:07:27;27.90;;;11.70;;
76550;SDS011;65393;53.160;18.170;2023-02-11T01:09:54;31.80;;;12.30;;
76550;SDS011;65393;53.160;18.170;2023-02-11T01:12:21;32.40;;;11.50;;
76550;SDS011;65393;53.160;18.170;2023-02-11T01:14:49;33.10;;;12.70;;
76550;SDS011;65393;53.160;18.170;2023-02-11T01:17:17;33.70;;;13.40;;
76550;SDS011;65393;53.160;18.170;2023-02-11T01:19:44;28.40;;;11.40;;
76550;SDS011;65393;53.160;18.170;2023-02-11T01:22:11;32.00;;;11.70;;
76550;SDS011;65393;53.160;18.170;2023-02-11T01:24:38;26.50;;;10.50;;
76550;SDS011;65393;53.160;18.170;2023-02-11T01:27:07;27.30;;;11.20;;
76550;SDS011;65393;53.160;18.170;2023-02-11T01:29:33;29.80;;;12.20;;
76550;SDS011;65393;53.160;18.170;2023-02-11T01:32:00;32.20;;;11.90;;
76550;SDS011;65393;53.160;18.170;2023-02-11T01:34:27;35.00;;;10.90;;
76550;SDS011;65393;53.160;18.170;2023-02-11T01:36:57;29.60;;;11.70;;
76550;SDS011;65393;53.160;18.170;2023-02-11T01:39:25;32.90;;;13.00;;
76550;SDS011;65393;53.160;18.170;2023-02-11T01:41:52;32.00;;;12.30;;
76550;SDS011;65393;53.160;18.170;2023-02-11T01:44:21;25.70;;;9.70;;
76550;SDS011;65393;53.160;18.170;2023-02-11T01:46:49;27.90;;;10.80;;
76550;SDS011;65393;53.160;18.170;2023-02-11T01:49:37;34.80;;;13.70;;
76550;SDS011;65393;53.160;18.170;2023-02-11T01:52:11;30.40;;;11.10;;
76550;SDS011;65393;53.160;18.170;2023-02-11T01:54:55;23.10;;;8.60;;
76550;SDS011;65393;53.160;18.170;2023-02-11T01:57:50;22.80;;;9.40;;
76550;SDS011;65393;53.160;18.170;2023-02-11T02:00:23;24.10;;;8.40;;
76550;SDS011;65393;53.160;18.170;2023-02-11T02:05:40;23.50;;;9.50;;
76550;SDS011;65393;53.160;18.170;2023-02-11T02:10:57;26.60;;;10.90;;
76550;SDS011;65393;53.160;18.170;2023-02-11T02:13:27;27.50;;;9.00;;
76550;SDS011;65393;53.160;18.170;2023-02-11T02:15:56;28.50;;;11.50;;
76550;SDS011;65393;53.160;18.170;2023-02-11T02:29:49;28.10;;;10.30;;
76550;SDS011;65393;53.160;18.170;2023-02-11T02:40:28;25.60;;;10.30;;
76550;SDS011;65393;53.160;18.170;2023-02-11T02:43:00;30.30;;;12.00;;
76550;SDS011;65393;53.160;18.170;2023-02-11T02:45:28;29.00;;;10.50;;
76550;SDS011;65393;53.160;18.170;2023-02-11T02:47:55;27.20;;;10.30;;
76550;SDS011;65393;53.160;18.170;2023-02-11T02:50:23;26.20;;;9.80;;
76550;SDS011;65393;53.160;18.170;2023-02-11T03:06:51;31.20;;;11.30;;
76550;SDS011;65393;53.160;18.170;2023-02-11T03:09:30;27.90;;;10.10;;
76550;SDS011;65393;53.160;18.170;2023-02-11T03:12:05;38.60;;;12.30;;
76550;SDS011;65393;53.160;18.170;2023-02-11T03:14:34;28.40;;;11.50;;
76550;SDS011;65393;53.160;18.170;2023-02-11T03:17:02;33.50;;;12.50;;
76550;SDS011;65393;53.160;18.170;2023-02-11T03:19:35;33.10;;;13.60;;
76550;SDS011;65393;53.160;18.170;2023-02-11T03:22:24;34.00;;;13.20;;
76550;SDS011;65393;53.160;18.170;2023-02-11T03:24:55;26.60;;;10.80;;
76550;SDS011;65393;53.160;18.170;2023-02-11T03:30:05;28.20;;;10.30;;
76550;SDS011;65393;53.160;18.170;2023-02-11T03:32:52;40.40;;;14.30;;
76550;SDS011;65393;53.160;18.170;2023-02-11T03:35:25;32.70;;;12.90;;
76550;SDS011;65393;53.160;18.170;2023-02-11T03:38:19;29.90;;;12.40;;
76550;SDS011;65393;53.160;18.170;2023-02-11T03:40:50;34.30;;;12.20;;
76550;SDS011;65393;53.160;18.170;2023-02-11T03:43:21;21.40;;;8.50;;
76550;SDS011;65393;53.160;18.170;2023-02-11T03:45:51;31.80;;;10.90;;
76550;SDS011;65393;53.160;18.170;2023-02-11T03:51:04;34.90;;;14.10;;
76550;SDS011;65393;53.160;18.170;2023-02-11T03:53:33;41.10;;;13.30;;
76550;SDS011;65393;53.160;18.170;2023-02-11T03:56:01;39.00;;;14.40;;
76550;SDS011;65393;53.160;18.170;2023-02-11T03:58:32;37.40;;;13.20;;
76550;SDS011;65393;53.160;18.170;2023-02-11T04:00:58;37.80;;;14.80;;
76550;SDS011;65393;53.160;18.170;2023-02-11T04:03:27;39.00;;;14.40;;
76550;SDS011;65393;53.160;18.170;2023-02-11T04:05:54;34.00;;;12.20;;
76550;SDS011;65393;53.160;18.170;2023-02-11T04:08:21;28.30;;;11.40;;
76550;SDS011;65393;53.160;18.170;2023-02-11T04:10:47;35.20;;;12.80;;
76550;SDS011;65393;53.160;18.170;2023-02-11T04:13:14;36.50;;;15.00;;
76550;SDS011;65393;53.160;18.170;2023-02-11T04:15:41;33.20;;;13.40;;
76550;SDS011;65393;53.160;18.170;2023-02-11T04:18:08;39.30;;;15.50;;
76550;SDS011;65393;53.160;18.170;2023-02-11T04:20:34;41.70;;;14.80;;
76550;SDS011;65393;53.160;18.170;2023-02-11T04:23:01;30.10;;;12.20;;
76550;SDS011;65393;53.160;18.170;2023-02-11T04:25:28;40.20;;;14.30;;
76550;SDS011;65393;53.160;18.170;2023-02-11T04:27:55;37.30;;;14.90;;
76550;SDS011;65393;53.160;18.170;2023-02-11T04:30:22;32.40;;;11.00;;
76550;SDS011;65393;53.160;18.170;2023-02-11T04:32:48;39.10;;;15.00;;
76550;SDS011;65393;53.160;18.170;2023-02-11T04:35:15;36.10;;;14.30;;
76550;SDS011;65393;53.160;18.170;2023-02-11T04:37:42;42.80;;;15.50;;
76550;SDS011;65393;53.160;18.170;2023-02-11T04:40:09;35.30;;;14.90;;
76550;SDS011;65393;53.160;18.170;2023-02-11T04:42:36;35.40;;;13.80;;
76550;SDS011;65393;53.160;18.170;2023-02-11T04:45:03;36.30;;;14.70;;
76550;SDS011;65393;53.160;18.170;2023-02-11T04:47:30;36.10;;;14.40;;
76550;SDS011;65393;53.160;18.170;2023-02-11T04:49:56;39.40;;;15.70;;
76550;SDS011;65393;53.160;18.170;2023-02-11T04:52:23;35.40;;;14.70;;
76550;SDS011;65393;53.160;18.170;2023-02-11T04:54:50;43.00;;;16.60;;
76550;SDS011;65393;53.160;18.170;2023-02-11T04:57:16;37.70;;;14.10;;
76550;SDS011;65393;53.160;18.170;2023-02-11T04:59:43;37.00;;;13.40;;
76550;SDS011;65393;53.160;18.170;2023-02-11T05:02:10;35.00;;;14.50;;
76550;SDS011;65393;53.160;18.170;2023-02-11T05:04:37;38.90;;;14.20;;
76550;SDS011;65393;53.160;18.170;2023-02-11T05:07:03;42.70;;;15.70;;
76550;SDS011;65393;53.160;18.170;2023-02-11T05:09:30;42.20;;;15.60;;
76550;SDS011;65393;53.160;18.170;2023-02-11T05:11:57;37.10;;;12.90;;
76550;SDS011;65393;53.160;18.170;2023-02-11T05:14:24;42.90;;;16.30;;
76550;SDS011;65393;53.160;18.170;2023-02-11T05:16:50;43.50;;;16.80;;
76550;SDS011;65393;53.160;18.170;2023-02-11T05:19:17;43.20;;;17.20;;
76550;SDS011;65393;53.160;18.170;2023-02-11T05:21:44;33.60;;;14.50;;
76550;SDS011;65393;53.160;18.170;2023-02-11T05:24:10;37.90;;;15.40;;
76550;SDS011;65393;53.160;18.170;2023-02-11T05:26:37;41.10;;;14.80;;
76550;SDS011;65393;53.160;18.170;2023-02-11T05:29:04;43.40;;;16.30;;
76550;SDS011;65393;53.160;18.170;2023-02-11T05:31:30;31.60;;;13.00;;
76550;SDS011;65393;53.160;18.170;2023-02-11T05:33:58;31.20;;;12.70;;
76550;SDS011;65393;53.160;18.170;2023-02-11T05:36:24;39.20;;;14.10;;
76550;SDS011;65393;53.160;18.170;2023-02-11T05:38:51;38.50;;;14.60;;
76550;SDS011;65393;53.160;18.170;2023-02-11T05:41:18;35.60;;;13.30;;
76550;SDS011;65393;53.160;18.170;2023-02-11T05:43:46;50.40;;;18.30;;
76550;SDS011;65393;53.160;18.170;2023-02-11T05:46:16;38.00;;;13.90;;
76550;SDS011;65393;53.160;18.170;2023-02-11T05:48:43;44.30;;;14.40;;
76550;SDS011;65393;53.160;18.170;2023-02-11T05:51:10;44.20;;;16.70;;
76550;SDS011;65393;53.160;18.170;2023-02-11T05:53:36;33.90;;;12.40;;
76550;SDS011;65393;53.160;18.170;2023-02-11T05:56:03;38.70;;;16.30;;
76550;SDS011;65393;53.160;18.170;2023-02-11T05:58:31;38.00;;;14.60;;
76550;SDS011;65393;53.160;18.170;2023-02-11T06:00:58;54.10;;;19.10;;
76550;SDS011;65393;53.160;18.170;2023-02-11T06:03:24;48.70;;;17.90;;
76550;SDS011;65393;53.160;18.170;2023-02-11T06:05:51;47.60;;;18.20;;
76550;SDS011;65393;53.160;18.170;2023-02-11T06:08:18;43.10;;;16.20;;
76550;SDS011;65393;53.160;18.170;2023-02-11T06:10:44;39.90;;;14.40;;
76550;SDS011;65393;53.160;18.170;2023-02-11T06:13:11;36.40;;;13.80;;
76550;SDS011;65393;53.160;18.170;2023-02-11T06:15:38;47.30;;;17.30;;
76550;SDS011;65393;53.160;18.170;2023-02-11T06:18:05;44.20;;;16.20;;
76550;SDS011;65393;53.160;18.170;2023-02-11T06:20:33;49.20;;;18.00;;
76550;SDS011;65393;53.160;18.170;2023-02-11T06:23:00;48.20;;;16.90;;
76550;SDS011;65393;53.160;18.170;2023-02-11T06:25:26;58.60;;;22.10;;
76550;SDS011;65393;53.160;18.170;2023-02-11T06:27:53;45.10;;;15.70;;
76550;SDS011;65393;53.160;18.170;2023-02-11T06:30:20;49.00;;;17.90;;
76550;SDS011;65393;53.160;18.170;2023-02-11T06:32:46;51.90;;;18.70;;
76550;SDS011;65393;53.160;18.170;2023-02-11T06:35:13;49.50;;;17.90;;
76550;SDS011;65393;53.160;18.170;2023-02-11T06:37:40;56.10;;;19.40;;
76550;SDS011;65393;53.160;18.170;2023-02-11T06:40:08;46.30;;;16.80;;
76550;SDS011;65393;53.160;18.170;2023-02-11T06:42:36;59.20;;;20.20;;
76550;SDS011;65393;53.160;18.170;2023-02-11T06:45:04;50.80;;;18.70;;
76550;SDS011;65393;53.160;18.170;2023-02-11T06:47:34;50.00;;;17.60;;
76550;SDS011;65393;53.160;18.170;2023-02-11T06:50:00;50.20;;;19.30;;
76550;SDS011;65393;53.160;18.170;2023-02-11T06:52:27;47.30;;;16.60;;
76550;SDS011;65393;53.160;18.170;2023-02-11T06:54:54;43.50;;;17.40;;
76550;SDS011;65393;53.160;18.170;2023-02-11T06:57:21;47.60;;;16.10;;
76550;SDS011;65393;53.160;18.170;2023-02-11T06:59:47;44.10;;;17.30;;
76550;SDS011;65393;53.160;18.170;2023-02-11T07:02:14;37.30;;;14.40;;
76550;SDS011;65393;53.160;18.170;2023-02-11T07:04:41;56.00;;;20.20;;
76550;SDS011;65393;53.160;18.170;2023-02-11T07:07:08;50.00;;;19.50;;
76550;SDS011;65393;53.160;18.170;2023-02-11T07:09:34;47.50;;;16.80;;
76550;SDS011;65393;53.160;18.170;2023-02-11T07:12:01;56.30;;;20.70;;
76550;SDS011;65393;53.160;18.170;2023-02-11T07:14:28;43.80;;;16.60;;
76550;SDS011;65393;53.160;18.170;2023-02-11T07:16:55;46.10;;;18.50;;
76550;SDS011;65393;53.160;18.170;2023-02-11T07:19:22;38.50;;;13.70;;
76550;SDS011;65393;53.160;18.170;2023-02-11T07:21:49;40.60;;;14.80;;
76550;SDS011;65393;53.160;18.170;2023-02-11T07:24:15;49.60;;;19.20;;
76550;SDS011;65393;53.160;18.170;2023-02-11T07:26:42;43.30;;;16.70;;
76550;SDS011;65393;53.160;18.170;2023-02-11T07:29:10;45.30;;;16.90;;
76550;SDS011;65393;53.160;18.170;2023-02-11T07:31:37;48.80;;;19.40;;
76550;SDS011;65393;53.160;18.170;2023-02-11T07:34:04;43.90;;;16.50;;
76550;SDS011;65393;53.160;18.170;2023-02-11T07:36:30;44.80;;;16.30;;
76550;SDS011;65393;53.160;18.170;2023-02-11T07:38:58;44.60;;;17.80;;
76550;SDS011;65393;53.160;18.170;2023-02-11T07:41:25;40.40;;;14.10;;
76550;SDS011;65393;53.160;18.170;2023-02-11T07:43:53;49.80;;;18.00;;
76550;SDS011;65393;53.160;18.170;2023-02-11T07:46:21;44.90;;;16.70;;
76550;SDS011;65393;53.160;18.170;2023-02-11T07:48:49;48.50;;;18.10;;
76550;SDS011;65393;53.160;18.170;2023-02-11T07:51:18;44.50;;;16.40;;
76550;SDS011;65393;53.160;18.170;2023-02-11T07:53:47;47.80;;;18.60;;
76550;SDS011;65393;53.160;18.170;2023-02-11T07:56:15;43.80;;;17.60;;
76550;SDS011;65393;53.160;18.170;2023-02-11T07:58:43;35.80;;;14.50;;
76550;SDS011;65393;53.160;18.170;2023-02-11T08:01:12;36.40;;;14.80;;
76550;SDS011;65393;53.160;18.170;2023-02-11T08:03:44;37.90;;;15.20;;
76550;SDS011;65393;53.160;18.170;2023-02-11T08:06:12;46.40;;;17.40;;
76550;SDS011;65393;53.160;18.170;2023-02-11T08:08:41;41.10;;;15.40;;
76550;SDS011;65393;53.160;18.170;2023-02-11T08:11:09;37.10;;;15.10;;
76550;SDS011;65393;53.160;18.170;2023-02-11T08:13:41;39.70;;;16.10;;
76550;SDS011;65393;53.160;18.170;2023-02-11T08:16:10;38.20;;;14.90;;
76550;SDS011;65393;53.160;18.170;2023-02-11T08:18:44;35.20;;;13.60;;
76550;SDS011;65393;53.160;18.170;2023-02-11T08:21:12;43.00;;;14.90;;
76550;SDS011;65393;53.160;18.170;2023-02-11T08:23:39;38.10;;;14.40;;
76550;SDS011;65393;53.160;18.170;2023-02-11T08:26:08;32.40;;;13.30;;
76550;SDS011;65393;53.160;18.170;2023-02-11T08:28:38;37.40;;;14.10;;
76550;SDS011;65393;53.160;18.170;2023-02-11T08:31:10;41.00;;;16.30;;
76550;SDS011;65393;53.160;18.170;2023-02-11T08:33:39;21.70;;;9.80;;
76550;SDS011;65393;53.160;18.170;2023-02-11T08:36:07;30.30;;;12.50;;
76550;SDS011;65393;53.160;18.170;2023-02-11T08:38:38;35.00;;;14.40;;
76550;SDS011;65393;53.160;18.170;2023-02-11T08:41:05;36.60;;;15.70;;
76550;SDS011;65393;53.160;18.170;2023-02-11T08:43:32;32.80;;;13.90;;
76550;SDS011;65393;53.160;18.170;2023-02-11T08:46:00;33.30;;;14.50;;
76550;SDS011;65393;53.160;18.170;2023-02-11T08:48:27;30.30;;;11.70;;
76550;SDS011;65393;53.160;18.170;2023-02-11T08:50:54;34.10;;;13.80;;
76550;SDS011;65393;53.160;18.170;2023-02-11T08:53:21;30.50;;;13.30;;
76550;SDS011;65393;53.160;18.170;2023-02-11T08:55:53;23.90;;;9.00;;
76550;SDS011;65393;53.160;18.170;2023-02-11T08:58:20;36.50;;;14.30;;
76550;SDS011;65393;53.160;18.170;2023-02-11T09:00:47;38.10;;;15.10;;
76550;SDS011;65393;53.160;18.170;2023-02-11T09:03:15;41.30;;;15.90;;
76550;SDS011;65393;53.160;18.170;2023-02-11T09:05:45;38.30;;;16.10;;
76550;SDS011;65393;53.160;18.170;2023-02-11T09:08:14;40.70;;;17.20;;
76550;SDS011;65393;53.160;18.170;2023-02-11T09:10:42;36.20;;;14.30;;
76550;SDS011;65393;53.160;18.170;2023-02-11T09:13:09;36.90;;;14.40;;
76550;SDS011;65393;53.160;18.170;2023-02-11T09:15:35;36.70;;;14.20;;
76550;SDS011;65393;53.160;18.170;2023-02-11T09:18:03;27.30;;;11.60;;
76550;SDS011;65393;53.160;18.170;2023-02-11T09:20:30;42.20;;;16.10;;
76550;SDS011;65393;53.160;18.170;2023-02-11T09:22:57;38.10;;;16.60;;
76550;SDS011;65393;53.160;18.170;2023-02-11T09:25:24;32.00;;;13.60;;
76550;SDS011;65393;53.160;18.170;2023-02-11T09:27:51;36.30;;;13.90;;
76550;SDS011;65393;53.160;18.170;2023-02-11T09:30:19;36.60;;;15.40;;
76550;SDS011;65393;53.160;18.170;2023-02-11T09:32:46;43.40;;;18.40;;
76550;SDS011;65393;53.160;18.170;2023-02-11T09:35:13;42.90;;;16.90;;
76550;SDS011;65393;53.160;18.170;2023-02-11T09:37:43;41.40;;;17.30;;
76550;SDS011;65393;53.160;18.170;2023-02-11T09:40:09;40.10;;;15.40;;
76550;SDS011;65393;53.160;18.170;2023-02-11T09:45:17;39.90;;;17.40;;
76550;SDS011;65393;53.160;18.170;2023-02-11T09:47:48;35.50;;;13.40;;
76550;SDS011;65393;53.160;18.170;2023-02-11T09:50:25;43.60;;;17.30;;
76550;SDS011;65393;53.160;18.170;2023-02-11T09:55:33;30.10;;;12.70;;
76550;SDS011;65393;53.160;18.170;2023-02-11T10:06:37;37.20;;;14.50;;
76550;SDS011;65393;53.160;18.170;2023-02-11T10:23:07;35.10;;;14.20;;
76550;SDS011;65393;53.160;18.170;2023-02-11T10:25:44;34.80;;;15.50;;
76550;SDS011;65393;53.160;18.170;2023-02-11T10:28:16;38.70;;;17.10;;
76550;SDS011;65393;53.160;18.170;2023-02-11T10:36:13;30.90;;;12.50;;
76550;SDS011;65393;53.160;18.170;2023-02-11T10:38:43;34.80;;;15.00;;
76550;SDS011;65393;53.160;18.170;2023-02-11T10:41:17;34.50;;;14.10;;
76550;SDS011;65393;53.160;18.170;2023-02-11T10:43:48;37.50;;;15.10;;
76550;SDS011;65393;53.160;18.170;2023-02-11T10:46:17;22.50;;;10.00;;
76550;SDS011;65393;53.160;18.170;2023-02-11T10:48:48;34.50;;;13.90;;
76550;SDS011;65393;53.160;18.170;2023-02-11T10:56:48;41.20;;;14.40;;
76550;SDS011;65393;53.160;18.170;2023-02-11T10:59:52;32.40;;;15.40;;
76550;SDS011;65393;53.160;18.170;2023-02-11T11:02:26;33.00;;;12.50;;
76550;SDS011;65393;53.160;18.170;2023-02-11T11:05:00;33.10;;;13.20;;
76550;SDS011;65393;53.160;18.170;2023-02-11T11:07:31;24.30;;;11.10;;
76550;SDS011;65393;53.160;18.170;2023-02-11T11:12:39;28.50;;;12.90;;
76550;SDS011;65393;53.160;18.170;2023-02-11T11:15:16;28.50;;;12.70;;
76550;SDS011;65393;53.160;18.170;2023-02-11T11:20:43;30.50;;;12.70;;
76550;SDS011;65393;53.160;18.170;2023-02-11T11:23:31;31.10;;;11.00;;
76550;SDS011;65393;53.160;18.170;2023-02-11T11:26:04;30.30;;;14.60;;
76550;SDS011;65393;53.160;18.170;2023-02-11T11:28:38;30.70;;;12.70;;
76550;SDS011;65393;53.160;18.170;2023-02-11T11:31:22;32.70;;;13.70;;
76550;SDS011;65393;53.160;18.170;2023-02-11T11:33:53;25.00;;;11.00;;
76550;SDS011;65393;53.160;18.170;2023-02-11T11:36:29;28.40;;;13.20;;
76550;SDS011;65393;53.160;18.170;2023-02-11T11:39:02;34.50;;;15.00;;
76550;SDS011;65393;53.160;18.170;2023-02-11T11:41:52;29.80;;;13.50;;
76550;SDS011;65393;53.160;18.170;2023-02-11T11:44:23;30.20;;;14.70;;
76550;SDS011;65393;53.160;18.170;2023-02-11T11:49:46;31.50;;;13.10;;
76550;SDS011;65393;53.160;18.170;2023-02-11T11:55:23;34.20;;;14.40;;
76550;SDS011;65393;53.160;18.170;2023-02-11T11:58:20;28.60;;;13.40;;
76550;SDS011;65393;53.160;18.170;2023-02-11T12:11:15;29.40;;;13.30;;
76550;SDS011;65393;53.160;18.170;2023-02-11T12:16:44;30.00;;;12.50;;
76550;SDS011;65393;53.160;18.170;2023-02-11T12:22:27;27.70;;;12.80;;
76550;SDS011;65393;53.160;18.170;2023-02-11T12:31:22;26.40;;;11.60;;
76550;SDS011;65393;53.160;18.170;2023-02-11T12:44:51;19.90;;;9.70;;
76550;SDS011;65393;53.160;18.170;2023-02-11T12:53:43;16.90;;;7.90;;
76550;SDS011;65393;53.160;18.170;2023-02-11T12:56:43;17.00;;;7.50;;
76550;SDS011;65393;53.160;18.170;2023-02-11T13:02:02;18.40;;;9.90;;
76550;SDS011;65393;53.160;18.170;2023-02-11T13:04:39;15.50;;;9.10;;
76550;SDS011;65393;53.160;18.170;2023-02-11T13:07:14;14.30;;;6.60;;
76550;SDS011;65393;53.160;18.170;2023-02-11T13:09:50;16.90;;;8.80;;
76550;SDS011;65393;53.160;18.170;2023-02-11T13:12:23;13.80;;;7.50;;
76550;SDS011;65393;53.160;18.170;2023-02-11T13:15:12;15.50;;;8.10;;
76550;SDS011;65393;53.160;18.170;2023-02-11T13:18:00;13.40;;;6.60;;
76550;SDS011;65393;53.160;18.170;2023-02-11T13:23:54;11.30;;;6.30;;
76550;SDS011;65393;53.160;18.170;2023-02-11T13:26:30;10.10;;;6.00;;
76550;SDS011;65393;53.160;18.170;2023-02-11T13:31:55;10.10;;;5.80;;
76550;SDS011;65393;53.160;18.170;2023-02-11T13:37:20;12.30;;;6.50;;
76550;SDS011;65393;53.160;18.170;2023-02-11T13:47:57;12.10;;;6.90;;
76550;SDS011;65393;53.160;18.170;2023-02-11T13:50:27;13.90;;;6.90;;
76550;SDS011;65393;53.160;18.170;2023-02-11T13:55:26;11.60;;;5.80;;
76550;SDS011;65393;53.160;18.170;2023-02-11T14:09:04;13.70;;;7.50;;
76550;SDS011;65393;53.160;18.170;2023-02-11T14:17:44;11.10;;;5.90;;
76550;SDS011;65393;53.160;18.170;2023-02-11T14:20:31;11.30;;;6.30;;
76550;SDS011;65393;53.160;18.170;2023-02-11T14:23:01;10.80;;;5.30;;
76550;SDS011;65393;53.160;18.170;2023-02-11T14:25:30;11.60;;;6.40;;
76550;SDS011;65393;53.160;18.170;2023-02-11T14:28:30;13.30;;;7.40;;
76550;SDS011;65393;53.160;18.170;2023-02-11T14:31:16;12.70;;;6.80;;
76550;SDS011;65393;53.160;18.170;2023-02-11T14:33:56;11.60;;;6.20;;
76550;SDS011;65393;53.160;18.170;2023-02-11T14:36:45;11.00;;;5.30;;
76550;SDS011;65393;53.160;18.170;2023-02-11T14:39:50;12.80;;;6.80;;
76550;SDS011;65393;53.160;18.170;2023-02-11T14:42:24;10.60;;;5.20;;
76550;SDS011;65393;53.160;18.170;2023-02-11T14:44:54;13.90;;;7.00;;
76550;SDS011;65393;53.160;18.170;2023-02-11T14:47:33;12.10;;;6.40;;
76550;SDS011;65393;53.160;18.170;2023-02-11T14:50:10;12.30;;;5.80;;
76550;SDS011;65393;53.160;18.170;2023-02-11T14:52:44;18.50;;;6.90;;
76550;SDS011;65393;53.160;18.170;2023-02-11T14:55:13;13.20;;;6.60;;
76550;SDS011;65393;53.160;18.170;2023-02-11T14:57:48;10.10;;;4.50;;
76550;SDS011;65393;53.160;18.170;2023-02-11T15:00:30;12.60;;;5.50;;
76550;SDS011;65393;53.160;18.170;2023-02-11T15:02:57;10.90;;;6.00;;
76550;SDS011;65393;53.160;18.170;2023-02-11T15:05:25;10.20;;;5.10;;
76550;SDS011;65393;53.160;18.170;2023-02-11T15:07:56;15.80;;;7.40;;
76550;SDS011;65393;53.160;18.170;2023-02-11T15:10:29;14.50;;;7.10;;
76550;SDS011;65393;53.160;18.170;2023-02-11T15:13:00;12.70;;;6.00;;
76550;SDS011;65393;53.160;18.170;2023-02-11T15:15:28;11.20;;;6.00;;
76550;SDS011;65393;53.160;18.170;2023-02-11T15:17:57;14.00;;;7.10;;
76550;SDS011;65393;53.160;18.170;2023-02-11T15:20:27;11.50;;;6.20;;
76550;SDS011;65393;53.160;18.170;2023-02-11T15:22:58;10.80;;;6.10;;
76550;SDS011;65393;53.160;18.170;2023-02-11T15:25:28;13.20;;;7.30;;
76550;SDS011;65393;53.160;18.170;2023-02-11T15:27:55;13.70;;;6.40;;
76550;SDS011;65393;53.160;18.170;2023-02-11T15:30:24;13.00;;;6.90;;
76550;SDS011;65393;53.160;18.170;2023-02-11T15:33:00;14.90;;;7.70;;
76550;SDS011;65393;53.160;18.170;2023-02-11T15:35:30;13.60;;;6.80;;
76550;SDS011;65393;53.160;18.170;2023-02-11T15:38:02;12.80;;;6.60;;
76550;SDS011;65393;53.160;18.170;2023-02-11T15:40:34;13.10;;;6.50;;
76550;SDS011;65393;53.160;18.170;2023-02-11T15:43:06;9.70;;;5.30;;
76550;SDS011;65393;53.160;18.170;2023-02-11T15:45:35;12.60;;;6.30;;
76550;SDS011;65393;53.160;18.170;2023-02-11T15:50:42;13.00;;;7.40;;
76550;SDS011;65393;53.160;18.170;2023-02-11T15:55:42;14.50;;;5.80;;
76550;SDS011;65393;53.160;18.170;2023-02-11T15:58:09;11.90;;;7.20;;
76550;SDS011;65393;53.160;18.170;2023-02-11T16:00:37;14.10;;;6.00;;
76550;SDS011;65393;53.160;18.170;2023-02-11T16:03:20;12.40;;;6.20;;
76550;SDS011;65393;53.160;18.170;2023-02-11T16:05:49;15.80;;;7.00;;
76550;SDS011;65393;53.160;18.170;2023-02-11T16:08:24;13.00;;;6.40;;
76550;SDS011;65393;53.160;18.170;2023-02-11T16:13:44;13.00;;;6.00;;
76550;SDS011;65393;53.160;18.170;2023-02-11T16:16:17;12.30;;;6.10;;
76550;SDS011;65393;53.160;18.170;2023-02-11T16:18:55;13.30;;;5.50;;
76550;SDS011;65393;53.160;18.170;2023-02-11T16:21:27;12.40;;;5.80;;
76550;SDS011;65393;53.160;18.170;2023-02-11T16:23:58;12.20;;;6.40;;
76550;SDS011;65393;53.160;18.170;2023-02-11T16:26:33;12.70;;;5.80;;
76550;SDS011;65393;53.160;18.170;2023-02-11T16:29:06;13.10;;;5.90;;
76550;SDS011;65393;53.160;18.170;2023-02-11T16:31:38;12.40;;;6.10;;
76550;SDS011;65393;53.160;18.170;2023-02-11T16:34:10;15.10;;;6.70;;
76550;SDS011;65393;53.160;18.170;2023-02-11T16:36:40;13.30;;;5.60;;
76550;SDS011;65393;53.160;18.170;2023-02-11T16:39:07;12.50;;;5.90;;
76550;SDS011;65393;53.160;18.170;2023-02-11T16:41:34;14.80;;;7.10;;
76550;SDS011;65393;53.160;18.170;2023-02-11T16:44:01;12.30;;;6.00;;
76550;SDS011;65393;53.160;18.170;2023-02-11T16:46:28;13.90;;;6.80;;
76550;SDS011;65393;53.160;18.170;2023-02-11T16:48:56;11.10;;;5.60;;
76550;SDS011;65393;53.160;18.170;2023-02-11T16:51:36;10.30;;;5.20;;
76550;SDS011;65393;53.160;18.170;2023-02-11T16:54:04;14.30;;;6.70;;
76550;SDS011;65393;53.160;18.170;2023-02-11T16:56:31;17.80;;;7.60;;
76550;SDS011;65393;53.160;18.170;2023-02-11T16:58:58;17.70;;;7.00;;
76550;SDS011;65393;53.160;18.170;2023-02-11T17:01:24;14.10;;;6.30;;
76550;SDS011;65393;53.160;18.170;2023-02-11T17:03:51;16.30;;;6.90;;
76550;SDS011;65393;53.160;18.170;2023-02-11T17:06:19;12.20;;;5.50;;
76550;SDS011;65393;53.160;18.170;2023-02-11T17:08:46;16.90;;;6.00;;
76550;SDS011;65393;53.160;18.170;2023-02-11T17:11:12;12.90;;;5.90;;
76550;SDS011;65393;53.160;18.170;2023-02-11T17:13:42;14.10;;;6.30;;
76550;SDS011;65393;53.160;18.170;2023-02-11T17:16:14;14.00;;;6.80;;
76550;SDS011;65393;53.160;18.170;2023-02-11T17:18:46;15.10;;;5.90;;
76550;SDS011;65393;53.160;18.170;2023-02-11T17:21:14;13.50;;;5.80;;
76550;SDS011;65393;53.160;18.170;2023-02-11T17:23:41;15.20;;;6.50;;
76550;SDS011;65393;53.160;18.170;2023-02-11T17:26:08;18.30;;;7.40;;
76550;SDS011;65393;53.160;18.170;2023-02-11T17:28:35;15.80;;;6.50;;
76550;SDS011;65393;53.160;18.170;2023-02-11T17:31:05;15.90;;;6.20;;
76550;SDS011;65393;53.160;18.170;2023-02-11T17:33:33;15.30;;;6.60;;